UAE76MG LTFM-GMMN
Flight info
| Callsign | UAE76MG |
|---|---|
| Flight time | N/A |
| Altitude | 40000 |
| Route | BARPE1D/35L BARPE UM603 TSL UM600 KRK UL869 LATAN DCT TUPAL UG728 CBN DCT TUC UA411 FES UR975 SADIC |
| Aircraft | A359/H-SDE2E3GHIJ3J4J5LM1ORWXY/LB1D1 |
Departure
| Time | 2026-05-05 21:34 |
|---|---|
| Airport | İstanbul Airport (LTFM) |
Arrival
| Time | N/A |
|---|---|
| Airport | Mohammed V International Airport (GMMN) |
| Time | Latitude | Longitude | Altitude | Speed | Heading |
|---|---|---|---|---|---|
| 2026-05-05 20:51 | 41.26495 | 28.73787 | 337 ft | 0 kts | 251° |
| 2026-05-05 21:14 | 41.26502 | 28.73813 | 335 ft | 4 kts | 251° |
| 2026-05-05 21:14 | 41.26510 | 28.73843 | 335 ft | 4 kts | 256° |
| 2026-05-05 21:14 | 41.26512 | 28.73869 | 335 ft | 4 kts | 296° |
| 2026-05-05 21:14 | 41.26498 | 28.73893 | 335 ft | 4 kts | 326° |
| 2026-05-05 21:15 | 41.26475 | 28.73910 | 335 ft | 4 kts | 339° |
| 2026-05-05 21:15 | 41.26465 | 28.73915 | 335 ft | 1 kts | 341° |
| 2026-05-05 21:22 | 41.26477 | 28.73909 | 335 ft | 7 kts | 341° |
| 2026-05-05 21:22 | 41.26536 | 28.73884 | 338 ft | 10 kts | 347° |
| 2026-05-05 21:22 | 41.26546 | 28.73882 | 336 ft | 2 kts | 349° |
| 2026-05-05 21:22 | 41.26553 | 28.73880 | 340 ft | 0 kts | 349° |
| 2026-05-05 21:23 | 41.26555 | 28.73880 | 340 ft | 3 kts | 349° |
| 2026-05-05 21:23 | 41.26615 | 28.73870 | 335 ft | 11 kts | 358° |
| 2026-05-05 21:23 | 41.26696 | 28.73874 | 336 ft | 13 kts | 2° |
| 2026-05-05 21:23 | 41.26790 | 28.73875 | 336 ft | 15 kts | 358° |
| 2026-05-05 21:24 | 41.26885 | 28.73872 | 337 ft | 0 kts | 359° |
| 2026-05-05 21:24 | 41.26911 | 28.73872 | 336 ft | 9 kts | 359° |
| 2026-05-05 21:24 | 41.26981 | 28.73870 | 336 ft | 12 kts | 359° |
| 2026-05-05 21:24 | 41.27042 | 28.73828 | 336 ft | 9 kts | 298° |
| 2026-05-05 21:25 | 41.27050 | 28.73751 | 340 ft | 10 kts | 270° |
| 2026-05-05 21:25 | 41.27049 | 28.73646 | 337 ft | 13 kts | 268° |
| 2026-05-05 21:25 | 41.27047 | 28.73526 | 337 ft | 13 kts | 269° |
| 2026-05-05 21:25 | 41.27045 | 28.73394 | 336 ft | 16 kts | 269° |
| 2026-05-05 21:26 | 41.27043 | 28.73234 | 340 ft | 19 kts | 269° |
| 2026-05-05 21:26 | 41.27041 | 28.73084 | 340 ft | 9 kts | 269° |
| 2026-05-05 21:26 | 41.27027 | 28.73008 | 335 ft | 6 kts | 224° |
| 2026-05-05 21:26 | 41.26990 | 28.72989 | 337 ft | 5 kts | 185° |
| 2026-05-05 21:27 | 41.26946 | 28.72987 | 340 ft | 7 kts | 178° |
| 2026-05-05 21:27 | 41.26886 | 28.72988 | 335 ft | 10 kts | 179° |
| 2026-05-05 21:27 | 41.26801 | 28.72990 | 336 ft | 14 kts | 179° |
| 2026-05-05 21:27 | 41.26727 | 28.72971 | 336 ft | 5 kts | 225° |
| 2026-05-05 21:28 | 41.26723 | 28.72953 | 335 ft | 0 kts | 251° |
| 2026-05-05 21:29 | 41.26716 | 28.72857 | 340 ft | 16 kts | 268° |
| 2026-05-05 21:30 | 41.26714 | 28.72700 | 340 ft | 18 kts | 269° |
| 2026-05-05 21:30 | 41.26711 | 28.72517 | 336 ft | 21 kts | 269° |
| 2026-05-05 21:30 | 41.26710 | 28.72377 | 337 ft | 12 kts | 269° |
| 2026-05-05 21:30 | 41.26679 | 28.72299 | 339 ft | 8 kts | 212° |
| 2026-05-05 21:31 | 41.26630 | 28.72289 | 337 ft | 8 kts | 181° |
| 2026-05-05 21:31 | 41.26563 | 28.72290 | 335 ft | 11 kts | 179° |
| 2026-05-05 21:31 | 41.26474 | 28.72291 | 336 ft | 14 kts | 179° |
| 2026-05-05 21:31 | 41.26364 | 28.72296 | 335 ft | 17 kts | 178° |
| 2026-05-05 21:32 | 41.26243 | 28.72303 | 337 ft | 15 kts | 162° |
| 2026-05-05 21:32 | 41.26210 | 28.72372 | 335 ft | 8 kts | 101° |
| 2026-05-05 21:32 | 41.26208 | 28.72452 | 336 ft | 10 kts | 90° |
| 2026-05-05 21:32 | 41.26228 | 28.72512 | 336 ft | 3 kts | 39° |
| 2026-05-05 21:33 | 41.26253 | 28.72523 | 337 ft | 0 kts | 2° |
| 2026-05-05 21:33 | 41.26268 | 28.72524 | 339 ft | 14 kts | 2° |
| 2026-05-05 21:33 | 41.26427 | 28.72521 | 338 ft | 60 kts | 359° |
| 2026-05-05 21:34 | 41.27095 | 28.72506 | 339 ft | 130 kts | 359° |
| 2026-05-05 21:34 | 41.28185 | 28.72489 | 536 ft | 171 kts | 360° |
| 2026-05-05 21:34 | 41.29411 | 28.72443 | 1256 ft | 177 kts | 358° |
| 2026-05-05 21:34 | 41.30694 | 28.72377 | 1891 ft | 200 kts | 358° |
| 2026-05-05 21:35 | 41.32233 | 28.72290 | 2104 ft | 243 kts | 358° |
| 2026-05-05 21:35 | 41.34008 | 28.72232 | 2798 ft | 259 kts | 360° |
| 2026-05-05 21:35 | 41.35804 | 28.72183 | 3804 ft | 256 kts | 357° |
| 2026-05-05 21:35 | 41.37507 | 28.71723 | 4509 ft | 248 kts | 341° |
| 2026-05-05 21:36 | 41.38867 | 28.70333 | 4906 ft | 254 kts | 309° |
| 2026-05-05 21:36 | 41.39441 | 28.68092 | 4984 ft | 265 kts | 276° |
| 2026-05-05 21:36 | 41.39134 | 28.65639 | 5000 ft | 272 kts | 259° |
| 2026-05-05 21:36 | 41.38700 | 28.63195 | 5272 ft | 272 kts | 264° |
| 2026-05-05 21:37 | 41.38429 | 28.60987 | 5892 ft | 275 kts | 266° |
| 2026-05-05 21:37 | 41.37924 | 28.58513 | 6891 ft | 282 kts | 251° |
| 2026-05-05 21:37 | 41.36808 | 28.56322 | 7874 ft | 293 kts | 227° |
| 2026-05-05 21:37 | 41.35057 | 28.54880 | 8870 ft | 303 kts | 200° |
| 2026-05-05 21:38 | 41.32959 | 28.54578 | 9890 ft | 307 kts | 172° |
| 2026-05-05 21:38 | 41.30811 | 28.54983 | 10614 ft | 321 kts | 173° |
| 2026-05-05 21:38 | 41.28496 | 28.55175 | 11037 ft | 345 kts | 178° |
| 2026-05-05 21:38 | 41.26053 | 28.55235 | 11489 ft | 366 kts | 181° |
| 2026-05-05 21:39 | 41.23491 | 28.54618 | 12211 ft | 375 kts | 199° |
| 2026-05-05 21:39 | 41.21052 | 28.53440 | 13049 ft | 381 kts | 202° |
| 2026-05-05 21:39 | 41.18557 | 28.52167 | 13891 ft | 387 kts | 202° |
| 2026-05-05 21:39 | 41.15993 | 28.50869 | 14669 ft | 392 kts | 201° |
| 2026-05-05 21:40 | 41.13428 | 28.49580 | 15497 ft | 395 kts | 201° |
| 2026-05-05 21:40 | 41.10879 | 28.48307 | 16302 ft | 398 kts | 201° |
| 2026-05-05 21:40 | 41.08275 | 28.47009 | 17111 ft | 402 kts | 201° |
| 2026-05-05 21:40 | 41.05610 | 28.45838 | 17938 ft | 405 kts | 195° |
| 2026-05-05 21:41 | 41.02864 | 28.44932 | 18728 ft | 409 kts | 193° |
| 2026-05-05 21:41 | 41.00077 | 28.44071 | 19441 ft | 413 kts | 193° |
| 2026-05-05 21:41 | 40.97268 | 28.43206 | 20194 ft | 416 kts | 193° |
| 2026-05-05 21:41 | 40.94439 | 28.42330 | 20949 ft | 420 kts | 193° |
| 2026-05-05 21:42 | 40.91636 | 28.41204 | 21667 ft | 423 kts | 203° |
| 2026-05-05 21:42 | 40.89082 | 28.39266 | 22390 ft | 425 kts | 219° |
| 2026-05-05 21:42 | 40.87003 | 28.36489 | 23108 ft | 426 kts | 234° |
| 2026-05-05 21:42 | 40.85556 | 28.33081 | 23799 ft | 427 kts | 250° |
| 2026-05-05 21:43 | 40.84842 | 28.29279 | 24376 ft | 428 kts | 266° |
| 2026-05-05 21:43 | 40.84734 | 28.25340 | 24958 ft | 431 kts | 270° |
| 2026-05-05 21:43 | 40.84414 | 28.21386 | 25551 ft | 436 kts | 262° |
| 2026-05-05 21:43 | 40.83870 | 28.17431 | 26144 ft | 440 kts | 261° |
| 2026-05-05 21:44 | 40.83280 | 28.13453 | 26719 ft | 444 kts | 260° |
| 2026-05-05 21:44 | 40.82676 | 28.09441 | 27300 ft | 448 kts | 260° |
| 2026-05-05 21:44 | 40.82063 | 28.05395 | 27866 ft | 451 kts | 260° |
| 2026-05-05 21:44 | 40.81444 | 28.01321 | 28419 ft | 455 kts | 260° |
| 2026-05-05 21:45 | 40.80818 | 27.97210 | 28963 ft | 459 kts | 260° |
| 2026-05-05 21:45 | 40.80185 | 27.93061 | 29499 ft | 463 kts | 260° |
| 2026-05-05 21:45 | 40.79617 | 27.88869 | 30016 ft | 466 kts | 264° |
| 2026-05-05 21:45 | 40.79440 | 27.84601 | 30494 ft | 467 kts | 271° |
| 2026-05-05 21:46 | 40.79470 | 27.80309 | 30941 ft | 469 kts | 272° |
| 2026-05-05 21:46 | 40.79523 | 27.76047 | 31386 ft | 471 kts | 272° |
| 2026-05-05 21:46 | 40.79576 | 27.71657 | 31834 ft | 473 kts | 272° |
| 2026-05-05 21:46 | 40.79623 | 27.67311 | 32265 ft | 475 kts | 272° |
| 2026-05-05 21:47 | 40.79688 | 27.62996 | 32665 ft | 476 kts | 275° |
| 2026-05-05 21:47 | 40.80082 | 27.58666 | 33076 ft | 475 kts | 284° |
| 2026-05-05 21:47 | 40.80877 | 27.54432 | 33484 ft | 475 kts | 288° |
| 2026-05-05 21:47 | 40.81762 | 27.50227 | 33910 ft | 475 kts | 288° |
| 2026-05-05 21:48 | 40.82647 | 27.46040 | 34439 ft | 472 kts | 288° |
| 2026-05-05 21:48 | 40.83523 | 27.41868 | 34870 ft | 471 kts | 288° |
| 2026-05-05 21:48 | 40.84394 | 27.37703 | 35261 ft | 471 kts | 288° |
| 2026-05-05 21:48 | 40.85263 | 27.33532 | 35636 ft | 470 kts | 288° |
| 2026-05-05 21:49 | 40.86127 | 27.29371 | 36022 ft | 470 kts | 288° |
| 2026-05-05 21:49 | 40.86990 | 27.25205 | 36371 ft | 470 kts | 288° |
| 2026-05-05 21:49 | 40.87850 | 27.21043 | 36723 ft | 470 kts | 288° |
| 2026-05-05 21:49 | 40.88709 | 27.16879 | 37069 ft | 470 kts | 288° |
| 2026-05-05 21:50 | 40.89566 | 27.12712 | 37416 ft | 470 kts | 288° |
| 2026-05-05 21:50 | 40.90421 | 27.08544 | 37737 ft | 470 kts | 288° |
| 2026-05-05 21:50 | 40.91275 | 27.04376 | 38084 ft | 470 kts | 288° |
| 2026-05-05 21:50 | 40.92032 | 27.00172 | 38398 ft | 472 kts | 283° |
| 2026-05-05 21:51 | 40.92381 | 26.95847 | 38714 ft | 475 kts | 274° |
| 2026-05-05 21:51 | 40.92306 | 26.91471 | 38979 ft | 476 kts | 270° |
| 2026-05-05 21:51 | 40.92097 | 26.87097 | 39241 ft | 476 kts | 269° |
| 2026-05-05 21:51 | 40.91834 | 26.82740 | 39523 ft | 475 kts | 268° |
| 2026-05-05 21:52 | 40.91268 | 26.74044 | 40017 ft | 475 kts | 268° |
| 2026-05-05 21:52 | 40.90990 | 26.69694 | 40064 ft | 475 kts | 268° |
| 2026-05-05 21:53 | 40.90452 | 26.61003 | 40066 ft | 474 kts | 268° |
| 2026-05-05 21:53 | 40.89925 | 26.52323 | 40068 ft | 474 kts | 268° |
| 2026-05-05 21:54 | 40.89394 | 26.43648 | 40060 ft | 473 kts | 268° |
| 2026-05-05 21:54 | 40.88859 | 26.35031 | 40056 ft | 473 kts | 268° |
| 2026-05-05 21:55 | 40.88315 | 26.26364 | 40057 ft | 473 kts | 268° |
| 2026-05-05 21:55 | 40.87656 | 26.17710 | 40048 ft | 474 kts | 266° |
| 2026-05-05 21:56 | 40.86772 | 26.09084 | 40051 ft | 474 kts | 265° |
| 2026-05-05 21:56 | 40.85878 | 26.00461 | 40047 ft | 473 kts | 265° |
| 2026-05-05 21:57 | 40.85000 | 25.91845 | 40046 ft | 473 kts | 265° |
| 2026-05-05 21:57 | 40.83962 | 25.83260 | 40045 ft | 473 kts | 264° |
| 2026-05-05 21:58 | 40.82874 | 25.74687 | 40048 ft | 473 kts | 264° |
| 2026-05-05 21:58 | 40.81805 | 25.66134 | 40053 ft | 472 kts | 264° |
| 2026-05-05 21:59 | 40.80749 | 25.57592 | 40048 ft | 471 kts | 264° |
| 2026-05-05 21:59 | 40.79693 | 25.49060 | 40049 ft | 471 kts | 264° |
| 2026-05-05 22:00 | 40.78650 | 25.40673 | 40049 ft | 470 kts | 264° |
| 2026-05-05 22:00 | 40.77583 | 25.32173 | 40045 ft | 470 kts | 264° |
| 2026-05-05 22:01 | 40.76506 | 25.23678 | 40048 ft | 469 kts | 264° |
| 2026-05-05 22:01 | 40.75424 | 25.15194 | 40048 ft | 469 kts | 264° |
| 2026-05-05 22:02 | 40.74346 | 25.06775 | 40049 ft | 468 kts | 264° |
| 2026-05-05 22:02 | 40.73260 | 24.98316 | 40049 ft | 468 kts | 264° |
| 2026-05-05 22:03 | 40.72160 | 24.89858 | 40048 ft | 468 kts | 264° |
| 2026-05-05 22:03 | 40.71057 | 24.81423 | 40050 ft | 467 kts | 264° |
| 2026-05-05 22:04 | 40.69949 | 24.72981 | 40048 ft | 467 kts | 264° |
| 2026-05-05 22:04 | 40.68840 | 24.64547 | 40043 ft | 467 kts | 264° |
| 2026-05-05 22:05 | 40.67718 | 24.56115 | 40053 ft | 467 kts | 264° |
| 2026-05-05 22:05 | 40.66592 | 24.47684 | 40047 ft | 467 kts | 264° |
| 2026-05-05 22:06 | 40.65459 | 24.39249 | 40049 ft | 467 kts | 264° |
| 2026-05-05 22:06 | 40.64321 | 24.30820 | 40052 ft | 467 kts | 264° |
| 2026-05-05 22:07 | 40.63183 | 24.22395 | 40049 ft | 467 kts | 264° |
| 2026-05-05 22:07 | 40.62036 | 24.13980 | 40053 ft | 467 kts | 263° |
| 2026-05-05 22:08 | 40.60881 | 24.05575 | 40054 ft | 466 kts | 263° |
| 2026-05-05 22:08 | 40.59724 | 23.97187 | 40050 ft | 466 kts | 263° |
| 2026-05-05 22:09 | 40.58566 | 23.88794 | 40050 ft | 466 kts | 263° |
| 2026-05-05 22:09 | 40.57393 | 23.80428 | 40052 ft | 465 kts | 263° |
| 2026-05-05 22:10 | 40.56216 | 23.72066 | 40050 ft | 465 kts | 263° |
| 2026-05-05 22:10 | 40.55037 | 23.63722 | 40049 ft | 464 kts | 263° |
| 2026-05-05 22:11 | 40.53853 | 23.55386 | 40047 ft | 463 kts | 263° |
| 2026-05-05 22:11 | 40.52665 | 23.47063 | 40046 ft | 463 kts | 263° |
| 2026-05-05 22:12 | 40.51474 | 23.38746 | 40043 ft | 463 kts | 263° |
| 2026-05-05 22:12 | 40.50269 | 23.30433 | 40043 ft | 463 kts | 263° |
| 2026-05-05 22:13 | 40.49059 | 23.22127 | 40039 ft | 463 kts | 263° |
| 2026-05-05 22:13 | 40.47848 | 23.13829 | 40047 ft | 463 kts | 263° |
| 2026-05-05 22:14 | 40.46638 | 23.05588 | 40051 ft | 463 kts | 263° |
| 2026-05-05 22:14 | 40.45009 | 22.97381 | 40047 ft | 469 kts | 252° |
| 2026-05-05 22:15 | 40.42504 | 22.89452 | 40043 ft | 471 kts | 251° |
| 2026-05-05 22:15 | 40.39841 | 22.81582 | 40040 ft | 472 kts | 250° |
| 2026-05-05 22:16 | 40.37162 | 22.73731 | 40033 ft | 472 kts | 250° |
| 2026-05-05 22:16 | 40.34494 | 22.65872 | 40033 ft | 472 kts | 250° |
| 2026-05-05 22:17 | 40.31831 | 22.58016 | 40041 ft | 472 kts | 250° |
| 2026-05-05 22:17 | 40.29144 | 22.50170 | 40048 ft | 472 kts | 250° |
| 2026-05-05 22:18 | 40.26467 | 22.42324 | 40062 ft | 472 kts | 250° |
| 2026-05-05 22:18 | 40.23827 | 22.34459 | 40067 ft | 472 kts | 251° |
| 2026-05-05 22:19 | 40.21200 | 22.26653 | 40080 ft | 472 kts | 250° |
| 2026-05-05 22:19 | 40.18545 | 22.18803 | 40091 ft | 472 kts | 250° |
| 2026-05-05 22:20 | 40.15879 | 22.10959 | 40095 ft | 472 kts | 250° |
| 2026-05-05 22:20 | 40.13210 | 22.03133 | 40097 ft | 471 kts | 250° |
| 2026-05-05 22:21 | 40.10531 | 21.95326 | 40100 ft | 471 kts | 250° |
| 2026-05-05 22:21 | 40.07783 | 21.87568 | 40101 ft | 470 kts | 249° |
| 2026-05-05 22:22 | 40.05024 | 21.79841 | 40072 ft | 469 kts | 249° |
| 2026-05-05 22:22 | 40.02277 | 21.72144 | 40102 ft | 466 kts | 250° |
| 2026-05-05 22:23 | 39.99549 | 21.64487 | 40107 ft | 465 kts | 249° |
| 2026-05-05 22:23 | 39.96820 | 21.56842 | 40108 ft | 465 kts | 249° |
| 2026-05-05 22:24 | 39.94556 | 21.50498 | 40114 ft | 465 kts | 249° |
| 2026-05-05 22:24 | 39.91840 | 21.42851 | 40118 ft | 465 kts | 249° |
| 2026-05-05 22:25 | 39.88683 | 21.33980 | 40124 ft | 464 kts | 249° |
| 2026-05-05 22:25 | 39.86401 | 21.27592 | 40133 ft | 464 kts | 249° |
| 2026-05-05 22:26 | 39.83675 | 21.19987 | 40139 ft | 463 kts | 249° |
| 2026-05-05 22:26 | 39.80947 | 21.12397 | 40146 ft | 463 kts | 249° |
| 2026-05-05 22:27 | 39.78221 | 21.04832 | 40151 ft | 462 kts | 249° |
| 2026-05-05 22:27 | 39.75508 | 20.97326 | 40150 ft | 461 kts | 249° |
| 2026-05-05 22:28 | 39.72778 | 20.89783 | 40159 ft | 461 kts | 249° |
| 2026-05-05 22:28 | 39.70044 | 20.82252 | 40149 ft | 461 kts | 249° |
| 2026-05-05 22:29 | 39.67401 | 20.74679 | 40154 ft | 460 kts | 251° |
| 2026-05-05 22:29 | 39.64858 | 20.67060 | 40156 ft | 460 kts | 251° |
| 2026-05-05 22:30 | 39.62302 | 20.59447 | 40152 ft | 461 kts | 251° |
| 2026-05-05 22:30 | 39.59717 | 20.51838 | 40148 ft | 461 kts | 251° |
| 2026-05-05 22:31 | 39.57121 | 20.44242 | 40139 ft | 461 kts | 250° |
| 2026-05-05 22:31 | 39.54518 | 20.36639 | 40128 ft | 461 kts | 250° |
| 2026-05-05 22:32 | 39.51907 | 20.29046 | 40121 ft | 462 kts | 250° |
| 2026-05-05 22:32 | 39.49286 | 20.21449 | 40113 ft | 462 kts | 250° |
| 2026-05-05 22:33 | 39.46661 | 20.13853 | 40115 ft | 462 kts | 250° |
| 2026-05-05 22:33 | 39.44371 | 20.06127 | 40106 ft | 457 kts | 260° |
| 2026-05-05 22:34 | 39.43094 | 19.98114 | 40106 ft | 455 kts | 263° |
| 2026-05-05 22:34 | 39.41994 | 19.90056 | 40105 ft | 455 kts | 264° |
| 2026-05-05 22:35 | 39.40912 | 19.81997 | 40107 ft | 455 kts | 264° |
| 2026-05-05 22:35 | 39.39809 | 19.73943 | 40108 ft | 455 kts | 263° |
| 2026-05-05 22:36 | 39.38706 | 19.65895 | 40108 ft | 455 kts | 263° |
| 2026-05-05 22:36 | 39.37609 | 19.57902 | 40107 ft | 454 kts | 263° |
| 2026-05-05 22:37 | 39.36479 | 19.49871 | 40108 ft | 454 kts | 263° |
| 2026-05-05 22:37 | 39.35340 | 19.41847 | 40109 ft | 454 kts | 263° |
| 2026-05-05 22:38 | 39.34200 | 19.33831 | 40112 ft | 453 kts | 263° |
| 2026-05-05 22:38 | 39.33058 | 19.25829 | 40108 ft | 453 kts | 263° |
| 2026-05-05 22:39 | 39.31913 | 19.17839 | 40113 ft | 452 kts | 263° |
| 2026-05-05 22:39 | 39.30764 | 19.09863 | 40115 ft | 451 kts | 263° |
| 2026-05-05 22:40 | 39.29601 | 19.01905 | 40111 ft | 452 kts | 261° |
| 2026-05-05 22:40 | 39.27914 | 18.94071 | 40112 ft | 453 kts | 257° |
| 2026-05-05 22:41 | 39.26046 | 18.86296 | 40110 ft | 453 kts | 256° |
| 2026-05-05 22:41 | 39.24146 | 18.78543 | 40110 ft | 453 kts | 256° |
| 2026-05-05 22:42 | 39.22249 | 18.70798 | 40108 ft | 453 kts | 256° |
| 2026-05-05 22:42 | 39.20354 | 18.63061 | 40107 ft | 452 kts | 256° |
| 2026-05-05 22:43 | 39.18457 | 18.55324 | 40101 ft | 452 kts | 256° |
| 2026-05-05 22:43 | 39.16570 | 18.47654 | 40100 ft | 452 kts | 255° |
| 2026-05-05 22:44 | 39.14662 | 18.39942 | 40102 ft | 453 kts | 257° |
| 2026-05-05 22:44 | 39.12740 | 18.32175 | 40099 ft | 456 kts | 256° |
| 2026-05-05 22:45 | 39.10808 | 18.24394 | 40091 ft | 456 kts | 256° |
| 2026-05-05 22:45 | 39.08874 | 18.16635 | 40091 ft | 455 kts | 256° |
| 2026-05-05 22:46 | 39.06938 | 18.08896 | 40086 ft | 454 kts | 256° |
| 2026-05-05 22:46 | 39.05002 | 18.01181 | 40087 ft | 453 kts | 256° |
| 2026-05-05 22:47 | 39.03066 | 17.93488 | 40082 ft | 452 kts | 256° |
| 2026-05-05 22:47 | 39.01127 | 17.85809 | 40082 ft | 451 kts | 256° |
| 2026-05-05 22:48 | 38.99187 | 17.78149 | 40080 ft | 451 kts | 256° |
| 2026-05-05 22:48 | 38.97267 | 17.70593 | 40080 ft | 450 kts | 256° |
| 2026-05-05 22:49 | 38.95320 | 17.62951 | 40075 ft | 450 kts | 256° |
| 2026-05-05 22:49 | 38.93364 | 17.55317 | 40071 ft | 450 kts | 255° |
| 2026-05-05 22:50 | 38.91403 | 17.47693 | 40072 ft | 450 kts | 256° |
| 2026-05-05 22:50 | 38.89448 | 17.40068 | 40073 ft | 450 kts | 256° |
| 2026-05-05 22:51 | 38.87486 | 17.32450 | 40073 ft | 450 kts | 255° |
| 2026-05-05 22:51 | 38.85516 | 17.24835 | 40075 ft | 449 kts | 255° |
| 2026-05-05 22:52 | 38.83541 | 17.17228 | 40076 ft | 449 kts | 255° |
| 2026-05-05 22:52 | 38.81576 | 17.09683 | 40071 ft | 449 kts | 255° |
| 2026-05-05 22:53 | 38.79592 | 17.02088 | 40075 ft | 449 kts | 255° |
| 2026-05-05 22:53 | 38.77606 | 16.94508 | 40081 ft | 449 kts | 255° |
| 2026-05-05 22:54 | 38.75616 | 16.86934 | 40078 ft | 448 kts | 255° |
| 2026-05-05 22:54 | 38.73621 | 16.79365 | 40079 ft | 448 kts | 255° |
| 2026-05-05 22:55 | 38.71622 | 16.71803 | 40067 ft | 448 kts | 255° |
| 2026-05-05 22:55 | 38.69620 | 16.64254 | 40069 ft | 448 kts | 255° |
| 2026-05-05 22:56 | 38.67613 | 16.56710 | 40070 ft | 448 kts | 255° |
| 2026-05-05 22:56 | 38.65603 | 16.49171 | 40068 ft | 447 kts | 255° |
| 2026-05-05 22:57 | 38.63590 | 16.41647 | 40067 ft | 447 kts | 255° |
| 2026-05-05 22:57 | 38.61603 | 16.34241 | 40065 ft | 446 kts | 255° |
| 2026-05-05 22:58 | 38.59585 | 16.26742 | 40062 ft | 446 kts | 255° |
| 2026-05-05 22:58 | 38.57566 | 16.19263 | 40061 ft | 445 kts | 255° |
| 2026-05-05 22:59 | 38.55547 | 16.11807 | 40058 ft | 444 kts | 255° |
| 2026-05-05 22:59 | 38.53528 | 16.04369 | 40065 ft | 443 kts | 255° |
| 2026-05-05 23:00 | 38.50495 | 15.93234 | 40059 ft | 442 kts | 255° |
| 2026-05-05 23:00 | 38.48471 | 15.85829 | 40055 ft | 442 kts | 255° |
| 2026-05-05 23:01 | 38.46443 | 15.78434 | 40055 ft | 441 kts | 255° |
| 2026-05-05 23:01 | 38.44413 | 15.71054 | 40053 ft | 441 kts | 254° |
| 2026-05-05 23:02 | 38.42381 | 15.63685 | 40096 ft | 440 kts | 254° |
| 2026-05-05 23:02 | 38.40349 | 15.56331 | 40053 ft | 439 kts | 254° |
| 2026-05-05 23:03 | 38.38327 | 15.49043 | 40058 ft | 439 kts | 254° |
| 2026-05-05 23:03 | 38.36289 | 15.41714 | 40052 ft | 439 kts | 254° |
| 2026-05-05 23:04 | 38.34244 | 15.34383 | 40047 ft | 439 kts | 254° |
| 2026-05-05 23:04 | 38.32196 | 15.27058 | 40044 ft | 439 kts | 254° |
| 2026-05-05 23:05 | 38.30142 | 15.19736 | 40048 ft | 439 kts | 254° |
| 2026-05-05 23:05 | 38.28085 | 15.12418 | 40044 ft | 439 kts | 253° |
| 2026-05-05 23:06 | 38.26022 | 15.05105 | 40046 ft | 439 kts | 253° |
| 2026-05-05 23:06 | 38.23954 | 14.97789 | 40048 ft | 439 kts | 253° |
| 2026-05-05 23:07 | 38.21882 | 14.90485 | 40051 ft | 439 kts | 253° |
| 2026-05-05 23:07 | 38.19804 | 14.83176 | 40048 ft | 440 kts | 253° |
| 2026-05-05 23:08 | 38.17721 | 14.75869 | 40053 ft | 440 kts | 253° |
| 2026-05-05 23:08 | 38.15632 | 14.68563 | 40051 ft | 440 kts | 253° |
| 2026-05-05 23:09 | 38.13538 | 14.61258 | 40050 ft | 440 kts | 253° |
| 2026-05-05 23:09 | 38.11437 | 14.53949 | 40054 ft | 441 kts | 253° |
| 2026-05-05 23:10 | 38.09332 | 14.46648 | 40057 ft | 441 kts | 253° |
| 2026-05-05 23:10 | 38.07220 | 14.39341 | 40056 ft | 441 kts | 253° |
| 2026-05-05 23:11 | 38.05103 | 14.32037 | 40057 ft | 441 kts | 253° |
| 2026-05-05 23:11 | 38.02995 | 14.24784 | 40065 ft | 441 kts | 252° |
| 2026-05-05 23:12 | 38.00870 | 14.17490 | 40062 ft | 441 kts | 252° |
| 2026-05-05 23:12 | 37.98737 | 14.10190 | 40058 ft | 441 kts | 252° |
| 2026-05-05 23:13 | 37.96599 | 14.02893 | 40065 ft | 442 kts | 252° |
| 2026-05-05 23:13 | 37.94461 | 13.95599 | 40065 ft | 442 kts | 252° |
| 2026-05-05 23:14 | 37.92675 | 13.89540 | 40058 ft | 442 kts | 252° |
| 2026-05-05 23:14 | 37.90521 | 13.82250 | 40060 ft | 442 kts | 252° |
| 2026-05-05 23:15 | 37.88361 | 13.74957 | 40065 ft | 442 kts | 252° |
| 2026-05-05 23:15 | 37.86199 | 13.67672 | 40058 ft | 442 kts | 252° |
| 2026-05-05 23:16 | 37.84030 | 13.60386 | 40060 ft | 443 kts | 252° |
| 2026-05-05 23:16 | 37.81842 | 13.53052 | 40059 ft | 442 kts | 252° |
| 2026-05-05 23:17 | 37.79681 | 13.45827 | 40061 ft | 442 kts | 252° |
| 2026-05-05 23:17 | 37.77500 | 13.38555 | 40063 ft | 442 kts | 251° |
| 2026-05-05 23:18 | 37.75315 | 13.31289 | 40064 ft | 442 kts | 251° |
| 2026-05-05 23:18 | 37.73125 | 13.24028 | 40056 ft | 442 kts | 251° |
| 2026-05-05 23:19 | 37.70929 | 13.16767 | 40070 ft | 442 kts | 251° |
| 2026-05-05 23:19 | 37.68730 | 13.09510 | 40054 ft | 442 kts | 251° |
| 2026-05-05 23:20 | 37.66527 | 13.02260 | 40064 ft | 443 kts | 251° |
| 2026-05-05 23:20 | 37.64316 | 12.95006 | 40051 ft | 443 kts | 251° |
| 2026-05-05 23:21 | 37.62102 | 12.87759 | 40050 ft | 443 kts | 251° |
| 2026-05-05 23:21 | 37.59882 | 12.80510 | 40043 ft | 443 kts | 251° |
| 2026-05-05 23:22 | 37.57656 | 12.73263 | 40051 ft | 443 kts | 251° |
| 2026-05-05 23:22 | 37.55425 | 12.66015 | 40051 ft | 444 kts | 251° |
| 2026-05-05 23:23 | 37.53186 | 12.58764 | 40052 ft | 444 kts | 251° |
| 2026-05-05 23:23 | 37.50945 | 12.51522 | 40051 ft | 444 kts | 250° |
| 2026-05-05 23:24 | 37.48698 | 12.44279 | 40049 ft | 444 kts | 250° |
| 2026-05-05 23:24 | 37.46446 | 12.37041 | 40046 ft | 444 kts | 250° |
| 2026-05-05 23:25 | 37.44188 | 12.29800 | 40043 ft | 444 kts | 250° |
| 2026-05-05 23:25 | 37.41928 | 12.22571 | 40042 ft | 444 kts | 250° |
| 2026-05-05 23:26 | 37.39660 | 12.15339 | 40038 ft | 444 kts | 250° |
| 2026-05-05 23:26 | 37.37389 | 12.08111 | 40034 ft | 444 kts | 250° |
| 2026-05-05 23:27 | 37.35128 | 12.00937 | 40034 ft | 444 kts | 250° |
| 2026-05-05 23:27 | 37.32848 | 11.93717 | 40034 ft | 444 kts | 250° |
| 2026-05-05 23:28 | 37.30566 | 11.86511 | 40036 ft | 444 kts | 250° |
| 2026-05-05 23:28 | 37.28306 | 11.79393 | 40035 ft | 444 kts | 250° |
| 2026-05-05 23:29 | 37.26016 | 11.72196 | 40031 ft | 444 kts | 250° |
| 2026-05-05 23:29 | 37.23723 | 11.65009 | 40015 ft | 443 kts | 250° |
| 2026-05-05 23:30 | 37.21427 | 11.57830 | 40027 ft | 443 kts | 250° |
| 2026-05-05 23:30 | 37.18867 | 11.50796 | 40023 ft | 446 kts | 242° |
| 2026-05-05 23:31 | 37.15113 | 11.44576 | 40022 ft | 449 kts | 232° |
| 2026-05-05 23:31 | 37.10961 | 11.38707 | 40016 ft | 450 kts | 231° |
| 2026-05-05 23:32 | 37.06764 | 11.32905 | 40014 ft | 450 kts | 231° |
| 2026-05-05 23:32 | 37.02581 | 11.27089 | 40020 ft | 449 kts | 230° |
| 2026-05-05 23:33 | 36.98407 | 11.21271 | 40012 ft | 449 kts | 230° |
| 2026-05-05 23:33 | 36.94248 | 11.15437 | 40004 ft | 449 kts | 232° |
| 2026-05-05 23:34 | 36.90899 | 11.08915 | 40005 ft | 445 kts | 246° |
| 2026-05-05 23:34 | 36.89204 | 11.01576 | 40008 ft | 444 kts | 263° |
| 2026-05-05 23:35 | 36.88701 | 10.93891 | 40006 ft | 445 kts | 266° |
| 2026-05-05 23:35 | 36.88373 | 10.86172 | 40005 ft | 445 kts | 266° |
| 2026-05-05 23:36 | 36.88032 | 10.78462 | 40002 ft | 445 kts | 266° |
| 2026-05-05 23:36 | 36.87655 | 10.70751 | 39998 ft | 445 kts | 265° |
| 2026-05-05 23:37 | 36.87261 | 10.63050 | 39999 ft | 444 kts | 265° |
| 2026-05-05 23:37 | 36.86861 | 10.55347 | 39998 ft | 444 kts | 265° |
| 2026-05-05 23:38 | 36.86457 | 10.47653 | 39994 ft | 444 kts | 265° |
| 2026-05-05 23:38 | 36.86050 | 10.39961 | 39998 ft | 444 kts | 265° |
| 2026-05-05 23:39 | 36.85638 | 10.32277 | 39994 ft | 444 kts | 265° |
| 2026-05-05 23:39 | 36.85221 | 10.24590 | 39994 ft | 443 kts | 265° |
| 2026-05-05 23:40 | 36.84922 | 10.16904 | 39991 ft | 444 kts | 268° |
| 2026-05-05 23:40 | 36.84866 | 10.09199 | 39990 ft | 443 kts | 268° |
| 2026-05-05 23:41 | 36.84809 | 10.01504 | 39999 ft | 443 kts | 268° |
| 2026-05-05 23:41 | 36.84707 | 9.93814 | 39992 ft | 443 kts | 268° |
| 2026-05-05 23:42 | 36.84580 | 9.86124 | 40001 ft | 443 kts | 268° |
| 2026-05-05 23:42 | 36.84446 | 9.78444 | 39999 ft | 443 kts | 268° |
| 2026-05-05 23:43 | 36.84308 | 9.70764 | 40004 ft | 443 kts | 268° |
| 2026-05-05 23:43 | 36.84167 | 9.63135 | 39996 ft | 442 kts | 268° |
| 2026-05-05 23:44 | 36.84021 | 9.55462 | 40003 ft | 442 kts | 268° |
| 2026-05-05 23:44 | 36.83870 | 9.47794 | 40001 ft | 442 kts | 268° |
| 2026-05-05 23:45 | 36.83716 | 9.40133 | 40004 ft | 441 kts | 268° |
| 2026-05-05 23:45 | 36.83555 | 9.32477 | 39999 ft | 441 kts | 267° |
| 2026-05-05 23:46 | 36.83381 | 9.24825 | 40004 ft | 441 kts | 267° |
| 2026-05-05 23:46 | 36.83204 | 9.17178 | 40004 ft | 441 kts | 267° |
| 2026-05-05 23:47 | 36.83025 | 9.09533 | 40015 ft | 441 kts | 267° |
| 2026-05-05 23:47 | 36.82839 | 9.01889 | 40014 ft | 440 kts | 267° |
| 2026-05-05 23:48 | 36.82675 | 8.94260 | 40021 ft | 440 kts | 269° |
| 2026-05-05 23:48 | 36.82846 | 8.86612 | 40021 ft | 440 kts | 271° |
| 2026-05-05 23:49 | 36.83108 | 8.78979 | 40019 ft | 440 kts | 271° |
| 2026-05-05 23:49 | 36.83316 | 8.71339 | 40014 ft | 441 kts | 270° |
| 2026-05-05 23:50 | 36.83483 | 8.63695 | 40015 ft | 441 kts | 270° |
| 2026-05-05 23:50 | 36.83524 | 8.56054 | 40011 ft | 440 kts | 268° |
| 2026-05-05 23:51 | 36.83482 | 8.48421 | 40007 ft | 440 kts | 268° |
| 2026-05-05 23:51 | 36.83453 | 8.40833 | 40010 ft | 440 kts | 269° |
| 2026-05-05 23:52 | 36.83438 | 8.33154 | 40009 ft | 440 kts | 269° |
| 2026-05-05 23:52 | 36.83425 | 8.25572 | 40009 ft | 440 kts | 269° |
| 2026-05-05 23:53 | 36.83407 | 8.17935 | 40003 ft | 440 kts | 269° |
| 2026-05-05 23:53 | 36.83384 | 8.10298 | 40000 ft | 440 kts | 269° |
| 2026-05-05 23:54 | 36.83355 | 8.02669 | 40000 ft | 440 kts | 269° |
| 2026-05-05 23:54 | 36.83321 | 7.95040 | 39994 ft | 439 kts | 269° |
| 2026-05-05 23:55 | 36.83282 | 7.87416 | 39996 ft | 439 kts | 268° |
| 2026-05-05 23:55 | 36.83237 | 7.79784 | 39993 ft | 439 kts | 268° |
| 2026-05-05 23:56 | 36.83162 | 7.72162 | 39993 ft | 439 kts | 268° |
| 2026-05-05 23:56 | 36.83073 | 7.64541 | 39997 ft | 439 kts | 268° |
| 2026-05-05 23:57 | 36.82982 | 7.56919 | 39997 ft | 439 kts | 268° |
| 2026-05-05 23:57 | 36.82887 | 7.49302 | 39994 ft | 439 kts | 268° |
| 2026-05-05 23:58 | 36.82789 | 7.41686 | 39991 ft | 439 kts | 268° |
| 2026-05-05 23:58 | 36.82687 | 7.34066 | 39986 ft | 439 kts | 268° |
| 2026-05-05 23:59 | 36.82579 | 7.26443 | 39984 ft | 439 kts | 268° |
| 2026-05-05 23:59 | 36.82466 | 7.18822 | 39985 ft | 439 kts | 268° |
| 2026-05-06 00:00 | 36.82349 | 7.11205 | 39981 ft | 439 kts | 268° |
| 2026-05-06 00:00 | 36.82227 | 7.03639 | 39978 ft | 439 kts | 268° |
| 2026-05-06 00:01 | 36.82100 | 6.96031 | 39978 ft | 438 kts | 268° |
| 2026-05-06 00:01 | 36.81969 | 6.88438 | 39979 ft | 437 kts | 268° |
| 2026-05-06 00:02 | 36.81833 | 6.80851 | 39968 ft | 437 kts | 268° |
| 2026-05-06 00:02 | 36.81716 | 6.74553 | 39979 ft | 437 kts | 268° |
| 2026-05-06 00:03 | 36.81572 | 6.66984 | 39979 ft | 436 kts | 268° |
| 2026-05-06 00:03 | 36.81422 | 6.59424 | 39975 ft | 436 kts | 268° |
| 2026-05-06 00:04 | 36.81267 | 6.51870 | 39973 ft | 435 kts | 268° |
| 2026-05-06 00:04 | 36.81109 | 6.44334 | 39969 ft | 434 kts | 268° |
| 2026-05-06 00:05 | 36.80863 | 6.33045 | 39968 ft | 434 kts | 268° |
| 2026-05-06 00:06 | 36.80692 | 6.25523 | 39956 ft | 433 kts | 268° |
| 2026-05-06 00:06 | 36.80518 | 6.18053 | 39938 ft | 433 kts | 268° |
| 2026-05-06 00:07 | 36.80323 | 6.10683 | 39927 ft | 424 kts | 268° |
| 2026-05-06 00:07 | 36.80162 | 6.03420 | 39918 ft | 413 kts | 268° |
| 2026-05-06 00:08 | 36.79981 | 5.96312 | 39911 ft | 407 kts | 266° |
| 2026-05-06 00:08 | 36.79758 | 5.89144 | 39905 ft | 413 kts | 266° |
| 2026-05-06 00:08 | 36.79379 | 5.85655 | 39892 ft | 400 kts | 256° |
| 2026-05-06 00:09 | 36.78432 | 5.82461 | 39862 ft | 387 kts | 245° |